Date,TemperatureHighF,TemperatureAvgF,TemperatureLowF,DewpointHighF,DewpointAvgF,DewpointLowF,HumidityHigh,HumidityAvg,HumidityLow,PressureMaxIn,PressureMinIn,WindSpeedMaxMPH,WindSpeedAvgMPH,GustSpeedMaxMPH,PrecipitationSumIn
2013-9-3,92,77,67,62,56,48,82,53,23,29.92,29.81,5,1,10,0.41
2013-9-4,92,78,65,60,48,34,78,39,16,30.05,29.90,6,2,12,0.00
2013-9-5,91,78,60,48,41,33,62,30,16,30.06,29.91,6,2,11,0.00
2013-9-6,90,77,59,47,41,34,57,30,18,30.05,29.84,6,2,11,0.00
2013-9-7,89,76,63,62,50,43,63,42,27,29.97,29.80,8,1,8,0.05
2013-9-8,90,75,60,52,49,44,67,42,25,29.92,29.70,7,1,9,0.00
2013-9-9,88,75,60,54,51,43,74,45,25,29.82,29.65,8,2,12,0.00
2013-9-10,73,66,62,63,58,53,96,77,56,29.97,29.78,8,2,14,0.77
2013-9-11,84,70,61,62,58,49,97,71,32,30.04,29.92,9,2,16,0.03
2013-9-12,71,65,60,66,60,56,94,84,70,30.01,29.90,7,2,14,1.25
2013-9-13,72,63,58,61,59,56,96,87,64,30.01,29.89,5,1,10,0.49
2013-9-14,75,64,58,60,58,55,97,80,52,29.99,29.86,8,1,10,0.90
2013-9-15,80,67,57,60,55,49,97,69,35,30.04,29.93,8,2,19,0.26
2013-9-16,79,67,55,56,54,50,96,66,39,30.11,29.96,6,1,8,0.00
2013-9-17,82,70,57,59,56,52,92,63,39,30.03,29.82,6,2,12,0.00
2013-9-18,83,73,66,60,56,50,75,58,35,29.87,29.71,7,2,13,0.00
2013-9-19,83,71,60,61,53,40,96,59,29,29.87,29.76,5,1,8,0.25
2013-9-20,82,69,58,54,51,42,74,53,34,29.99,29.84,6,2,9,0.00
2013-9-21,81,68,55,57,53,49,91,62,37,30.00,29.80,6,2,11,0.00
2013-9-22,80,67,56,57,52,44,95,62,31,29.84,29.49,15,5,28,0.45
2013-9-23,71,59,46,44,36,31,76,46,24,30.08,29.70,11,3,18,0.00
2013-9-24,77,61,44,45,41,37,85,51,26,30.18,29.96,4,1,8,0.00
2013-9-25,83,68,50,46,41,36,76,40,22,29.96,29.62,10,3,20,0.00
2013-9-26,82,69,54,43,39,32,63,37,19,29.76,29.60,11,4,16,0.00
2013-9-27,72,62,46,50,41,32,64,47,37,30.01,29.66,11,5,16,0.00
2013-9-28,71,52,36,35,27,14,76,42,12,30.28,30.01,7,1,9,0.00
2013-9-29,76,57,39,32,28,22,73,38,14,30.30,30.05,3,1,6,0.00
2013-9-30,82,64,45,34,30,24,59,31,13,30.08,29.84,6,1,10,0.00